sensor_id;sensor_type;location;lat;lon;timestamp;temperature;humidity
25536;DHT22;13431;51.352;6.412;2022-11-20T00:01:24;1.20;99.90
25536;DHT22;13431;51.352;6.412;2022-11-20T00:03:54;1.30;99.90
25536;DHT22;13431;51.352;6.412;2022-11-20T00:06:22;1.30;99.90
25536;DHT22;13431;51.352;6.412;2022-11-20T00:08:50;1.30;99.90
25536;DHT22;13431;51.352;6.412;2022-11-20T00:11:19;1.30;99.90
25536;DHT22;13431;51.352;6.412;2022-11-20T00:13:50;1.30;99.90
25536;DHT22;13431;51.352;6.412;2022-11-20T00:16:20;1.40;99.90
25536;DHT22;13431;51.352;6.412;2022-11-20T00:18:47;1.40;99.90
25536;DHT22;13431;51.352;6.412;2022-11-20T00:21:18;1.50;99.90
25536;DHT22;13431;51.352;6.412;2022-11-20T00:23:46;1.50;99.90
25536;DHT22;13431;51.352;6.412;2022-11-20T00:26:15;1.50;99.90
25536;DHT22;13431;51.352;6.412;2022-11-20T00:28:44;1.50;99.90
25536;DHT22;13431;51.352;6.412;2022-11-20T00:31:14;1.50;99.90
25536;DHT22;13431;51.352;6.412;2022-11-20T00:33:42;1.50;99.90
25536;DHT22;13431;51.352;6.412;2022-11-20T00:36:13;1.60;99.90
25536;DHT22;13431;51.352;6.412;2022-11-20T00:38:41;1.60;99.90
25536;DHT22;13431;51.352;6.412;2022-11-20T00:41:10;1.60;99.90
25536;DHT22;13431;51.352;6.412;2022-11-20T00:43:38;1.60;99.90
25536;DHT22;13431;51.352;6.412;2022-11-20T00:46:17;1.60;99.90
25536;DHT22;13431;51.352;6.412;2022-11-20T00:48:45;1.60;99.90
25536;DHT22;13431;51.352;6.412;2022-11-20T00:51:15;1.50;99.90
25536;DHT22;13431;51.352;6.412;2022-11-20T00:53:43;1.50;99.90
25536;DHT22;13431;51.352;6.412;2022-11-20T00:56:12;1.40;99.90
25536;DHT22;13431;51.352;6.412;2022-11-20T00:58:43;1.40;99.90
25536;DHT22;13431;51.352;6.412;2022-11-20T01:01:14;1.40;99.90
25536;DHT22;13431;51.352;6.412;2022-11-20T01:03:44;1.40;99.90
25536;DHT22;13431;51.352;6.412;2022-11-20T01:06:19;1.40;99.90
25536;DHT22;13431;51.352;6.412;2022-11-20T01:08:47;1.30;99.90
25536;DHT22;13431;51.352;6.412;2022-11-20T01:11:17;1.30;99.90
25536;DHT22;13431;51.352;6.412;2022-11-20T01:13:46;1.30;99.90
25536;DHT22;13431;51.352;6.412;2022-11-20T01:18:58;1.30;99.90
25536;DHT22;13431;51.352;6.412;2022-11-20T01:21:30;1.30;99.90
25536;DHT22;13431;51.352;6.412;2022-11-20T01:23:58;1.40;99.90
25536;DHT22;13431;51.352;6.412;2022-11-20T01:26:34;1.40;99.90
25536;DHT22;13431;51.352;6.412;2022-11-20T01:29:03;1.50;99.90
25536;DHT22;13431;51.352;6.412;2022-11-20T01:31:36;1.50;99.90
25536;DHT22;13431;51.352;6.412;2022-11-20T01:34:12;1.50;99.90
25536;DHT22;13431;51.352;6.412;2022-11-20T01:36:41;1.50;99.90
25536;DHT22;13431;51.352;6.412;2022-11-20T01:39:13;1.50;99.90
25536;DHT22;13431;51.352;6.412;2022-11-20T01:41:41;1.50;99.90
25536;DHT22;13431;51.352;6.412;2022-11-20T01:47:44;1.40;99.90
25536;DHT22;13431;51.352;6.412;2022-11-20T01:50:27;1.40;99.90
25536;DHT22;13431;51.352;6.412;2022-11-20T01:53:11;1.40;99.90
25536;DHT22;13431;51.352;6.412;2022-11-20T01:55:49;1.40;99.90
25536;DHT22;13431;51.352;6.412;2022-11-20T01:58:22;1.30;99.90
25536;DHT22;13431;51.352;6.412;2022-11-20T02:00:51;1.30;99.90
25536;DHT22;13431;51.352;6.412;2022-11-20T02:03:20;1.20;99.90
25536;DHT22;13431;51.352;6.412;2022-11-20T02:08:39;0.90;99.90
25536;DHT22;13431;51.352;6.412;2022-11-20T02:11:06;0.60;99.90
25536;DHT22;13431;51.352;6.412;2022-11-20T02:13:34;0.20;99.90
25536;DHT22;13431;51.352;6.412;2022-11-20T02:16:17;-0.10;99.90
25536;DHT22;13431;51.352;6.412;2022-11-20T02:18:45;-0.30;99.90
25536;DHT22;13431;51.352;6.412;2022-11-20T02:21:21;-0.50;99.90
25536;DHT22;13431;51.352;6.412;2022-11-20T02:26:58;-0.80;99.90
25536;DHT22;13431;51.352;6.412;2022-11-20T02:32:03;-1.10;99.90
25536;DHT22;13431;51.352;6.412;2022-11-20T02:34:31;-1.20;99.90
25536;DHT22;13431;51.352;6.412;2022-11-20T02:36:59;-1.40;99.90
25536;DHT22;13431;51.352;6.412;2022-11-20T02:39:27;-1.50;99.90
25536;DHT22;13431;51.352;6.412;2022-11-20T02:41:56;-1.60;99.90
25536;DHT22;13431;51.352;6.412;2022-11-20T02:44:23;-1.70;99.90
25536;DHT22;13431;51.352;6.412;2022-11-20T02:46:51;-1.70;99.90
25536;DHT22;13431;51.352;6.412;2022-11-20T02:49:18;-1.80;99.90
25536;DHT22;13431;51.352;6.412;2022-11-20T02:51:46;-1.90;99.90
25536;DHT22;13431;51.352;6.412;2022-11-20T02:54:13;-1.90;99.90
25536;DHT22;13431;51.352;6.412;2022-11-20T02:56:41;-2.00;99.90
25536;DHT22;13431;51.352;6.412;2022-11-20T02:59:09;-2.00;99.90
25536;DHT22;13431;51.352;6.412;2022-11-20T03:01:37;-2.00;99.90
25536;DHT22;13431;51.352;6.412;2022-11-20T03:04:04;-2.10;99.90
25536;DHT22;13431;51.352;6.412;2022-11-20T03:06:32;-2.10;99.90
25536;DHT22;13431;51.352;6.412;2022-11-20T03:08:59;-2.20;99.90
25536;DHT22;13431;51.352;6.412;2022-11-20T03:11:27;-2.10;99.90
25536;DHT22;13431;51.352;6.412;2022-11-20T03:13:54;-2.10;99.90
25536;DHT22;13431;51.352;6.412;2022-11-20T03:16:22;-2.10;99.90
25536;DHT22;13431;51.352;6.412;2022-11-20T03:18:52;-2.10;99.90
25536;DHT22;13431;51.352;6.412;2022-11-20T03:21:20;-2.10;99.90
25536;DHT22;13431;51.352;6.412;2022-11-20T03:23:48;-2.00;99.90
25536;DHT22;13431;51.352;6.412;2022-11-20T03:28:51;-2.00;99.90
25536;DHT22;13431;51.352;6.412;2022-11-20T03:31:21;-1.90;99.90
25536;DHT22;13431;51.352;6.412;2022-11-20T03:33:49;-1.70;99.90
25536;DHT22;13431;51.352;6.412;2022-11-20T03:36:18;-1.40;99.90
25536;DHT22;13431;51.352;6.412;2022-11-20T03:38:46;-1.10;99.90
25536;DHT22;13431;51.352;6.412;2022-11-20T03:41:22;-0.90;99.90
25536;DHT22;13431;51.352;6.412;2022-11-20T03:43:54;-0.60;99.90
25536;DHT22;13431;51.352;6.412;2022-11-20T03:46:23;-0.50;99.90
25536;DHT22;13431;51.352;6.412;2022-11-20T03:48:50;-0.40;99.90
25536;DHT22;13431;51.352;6.412;2022-11-20T03:51:27;-0.30;99.90
25536;DHT22;13431;51.352;6.412;2022-11-20T03:53:57;-0.20;99.90
25536;DHT22;13431;51.352;6.412;2022-11-20T03:56:26;-0.20;99.90
25536;DHT22;13431;51.352;6.412;2022-11-20T03:58:54;-0.10;99.90
25536;DHT22;13431;51.352;6.412;2022-11-20T04:01:28;-0.10;99.90
25536;DHT22;13431;51.352;6.412;2022-11-20T04:03:57;-0.10;99.90
25536;DHT22;13431;51.352;6.412;2022-11-20T04:06:26;-0.10;99.90
25536;DHT22;13431;51.352;6.412;2022-11-20T04:08:55;0.00;99.90
25536;DHT22;13431;51.352;6.412;2022-11-20T04:11:23;0.00;99.90
25536;DHT22;13431;51.352;6.412;2022-11-20T04:14:02;0.00;99.90
25536;DHT22;13431;51.352;6.412;2022-11-20T04:16:31;0.00;99.90
25536;DHT22;13431;51.352;6.412;2022-11-20T04:19:00;0.00;99.90
25536;DHT22;13431;51.352;6.412;2022-11-20T04:21:28;0.10;99.90
25536;DHT22;13431;51.352;6.412;2022-11-20T04:23:56;0.20;99.90
25536;DHT22;13431;51.352;6.412;2022-11-20T04:26:26;0.20;99.90
25536;DHT22;13431;51.352;6.412;2022-11-20T04:28:54;0.30;99.90
25536;DHT22;13431;51.352;6.412;2022-11-20T04:31:27;0.30;99.90
25536;DHT22;13431;51.352;6.412;2022-11-20T04:33:54;0.30;99.90
25536;DHT22;13431;51.352;6.412;2022-11-20T04:36:24;0.40;99.90
25536;DHT22;13431;51.352;6.412;2022-11-20T04:38:53;0.30;99.90
25536;DHT22;13431;51.352;6.412;2022-11-20T04:41:26;0.30;99.90
25536;DHT22;13431;51.352;6.412;2022-11-20T04:43:56;0.30;99.90
25536;DHT22;13431;51.352;6.412;2022-11-20T04:46:27;0.20;99.90
25536;DHT22;13431;51.352;6.412;2022-11-20T04:48:55;0.00;99.90
25536;DHT22;13431;51.352;6.412;2022-11-20T04:51:23;-0.10;99.90
25536;DHT22;13431;51.352;6.412;2022-11-20T04:53:50;-0.40;99.90
25536;DHT22;13431;51.352;6.412;2022-11-20T04:56:18;-0.60;99.90
25536;DHT22;13431;51.352;6.412;2022-11-20T04:58:45;-0.70;99.90
25536;DHT22;13431;51.352;6.412;2022-11-20T05:01:18;-0.60;99.90
25536;DHT22;13431;51.352;6.412;2022-11-20T05:03:46;-0.50;99.90
25536;DHT22;13431;51.352;6.412;2022-11-20T05:06:16;-0.40;99.90
25536;DHT22;13431;51.352;6.412;2022-11-20T05:08:43;-0.30;99.90
25536;DHT22;13431;51.352;6.412;2022-11-20T05:11:13;-0.20;99.90
25536;DHT22;13431;51.352;6.412;2022-11-20T05:13:41;0.00;99.90
25536;DHT22;13431;51.352;6.412;2022-11-20T05:16:11;0.10;99.90
25536;DHT22;13431;51.352;6.412;2022-11-20T05:18:40;0.30;99.90
25536;DHT22;13431;51.352;6.412;2022-11-20T05:21:09;0.30;99.90
25536;DHT22;13431;51.352;6.412;2022-11-20T05:23:37;0.40;99.90
25536;DHT22;13431;51.352;6.412;2022-11-20T05:26:07;0.50;99.90
25536;DHT22;13431;51.352;6.412;2022-11-20T05:28:35;0.50;99.90
25536;DHT22;13431;51.352;6.412;2022-11-20T05:31:17;0.60;99.90
25536;DHT22;13431;51.352;6.412;2022-11-20T05:33:52;0.70;99.90
25536;DHT22;13431;51.352;6.412;2022-11-20T05:36:20;0.70;99.90
25536;DHT22;13431;51.352;6.412;2022-11-20T05:38:47;0.80;99.90
25536;DHT22;13431;51.352;6.412;2022-11-20T05:41:19;0.80;99.90
25536;DHT22;13431;51.352;6.412;2022-11-20T05:43:48;0.90;99.90
25536;DHT22;13431;51.352;6.412;2022-11-20T05:46:18;0.90;99.90
25536;DHT22;13431;51.352;6.412;2022-11-20T05:48:54;1.00;99.90
25536;DHT22;13431;51.352;6.412;2022-11-20T05:51:21;1.00;99.90
25536;DHT22;13431;51.352;6.412;2022-11-20T05:53:49;1.10;99.90
25536;DHT22;13431;51.352;6.412;2022-11-20T05:56:18;1.10;99.90
25536;DHT22;13431;51.352;6.412;2022-11-20T05:58:46;1.20;99.90
25536;DHT22;13431;51.352;6.412;2022-11-20T06:01:21;1.20;99.90
25536;DHT22;13431;51.352;6.412;2022-11-20T06:03:49;1.30;99.90
25536;DHT22;13431;51.352;6.412;2022-11-20T06:06:18;1.30;99.90
25536;DHT22;13431;51.352;6.412;2022-11-20T06:08:46;1.30;99.90
25536;DHT22;13431;51.352;6.412;2022-11-20T06:11:15;1.30;99.90
25536;DHT22;13431;51.352;6.412;2022-11-20T06:13:46;1.30;99.90
25536;DHT22;13431;51.352;6.412;2022-11-20T06:16:15;1.30;99.90
25536;DHT22;13431;51.352;6.412;2022-11-20T06:18:43;1.40;99.90
25536;DHT22;13431;51.352;6.412;2022-11-20T06:21:16;1.30;99.90
25536;DHT22;13431;51.352;6.412;2022-11-20T06:23:45;1.30;99.90
25536;DHT22;13431;51.352;6.412;2022-11-20T06:26:31;1.30;99.90
25536;DHT22;13431;51.352;6.412;2022-11-20T06:28:58;1.30;99.90
25536;DHT22;13431;51.352;6.412;2022-11-20T06:31:26;1.30;99.90
25536;DHT22;13431;51.352;6.412;2022-11-20T06:33:53;1.30;99.90
25536;DHT22;13431;51.352;6.412;2022-11-20T06:36:22;1.30;99.90
25536;DHT22;13431;51.352;6.412;2022-11-20T06:38:50;1.20;99.90
25536;DHT22;13431;51.352;6.412;2022-11-20T06:41:19;1.10;99.90
25536;DHT22;13431;51.352;6.412;2022-11-20T06:43:47;1.00;99.90
25536;DHT22;13431;51.352;6.412;2022-11-20T06:46:16;1.00;99.90
25536;DHT22;13431;51.352;6.412;2022-11-20T06:48:47;0.90;99.90
25536;DHT22;13431;51.352;6.412;2022-11-20T06:51:15;0.80;99.90
25536;DHT22;13431;51.352;6.412;2022-11-20T06:53:43;0.50;99.90
25536;DHT22;13431;51.352;6.412;2022-11-20T06:56:10;0.10;99.90
25536;DHT22;13431;51.352;6.412;2022-11-20T06:58:37;-0.10;99.90
25536;DHT22;13431;51.352;6.412;2022-11-20T07:01:08;-0.10;99.90
25536;DHT22;13431;51.352;6.412;2022-11-20T07:03:36;0.00;99.90
25536;DHT22;13431;51.352;6.412;2022-11-20T07:06:04;0.20;99.90
25536;DHT22;13431;51.352;6.412;2022-11-20T07:08:33;0.30;99.90
25536;DHT22;13431;51.352;6.412;2022-11-20T07:11:03;0.50;99.90
25536;DHT22;13431;51.352;6.412;2022-11-20T07:13:31;0.60;99.90
25536;DHT22;13431;51.352;6.412;2022-11-20T07:16:04;0.60;99.90
25536;DHT22;13431;51.352;6.412;2022-11-20T07:18:32;0.60;99.90
25536;DHT22;13431;51.352;6.412;2022-11-20T07:21:04;0.70;99.90
25536;DHT22;13431;51.352;6.412;2022-11-20T07:23:32;0.80;99.90
25536;DHT22;13431;51.352;6.412;2022-11-20T07:26:06;0.90;99.90
25536;DHT22;13431;51.352;6.412;2022-11-20T07:28:33;1.00;99.90
25536;DHT22;13431;51.352;6.412;2022-11-20T07:31:01;1.00;99.90
25536;DHT22;13431;51.352;6.412;2022-11-20T07:33:29;1.00;99.90
25536;DHT22;13431;51.352;6.412;2022-11-20T07:35:58;1.00;99.90
25536;DHT22;13431;51.352;6.412;2022-11-20T07:38:26;1.10;99.90
25536;DHT22;13431;51.352;6.412;2022-11-20T07:40:55;1.20;99.90
25536;DHT22;13431;51.352;6.412;2022-11-20T07:43:23;1.20;99.90
25536;DHT22;13431;51.352;6.412;2022-11-20T07:45:54;1.10;99.90
25536;DHT22;13431;51.352;6.412;2022-11-20T07:48:22;1.00;99.90
25536;DHT22;13431;51.352;6.412;2022-11-20T07:50:49;1.00;99.90
25536;DHT22;13431;51.352;6.412;2022-11-20T07:53:17;1.10;99.90
25536;DHT22;13431;51.352;6.412;2022-11-20T07:55:47;1.20;99.90
25536;DHT22;13431;51.352;6.412;2022-11-20T07:58:15;1.30;99.90
25536;DHT22;13431;51.352;6.412;2022-11-20T08:00:42;1.40;99.90
25536;DHT22;13431;51.352;6.412;2022-11-20T08:03:09;1.50;99.90
25536;DHT22;13431;51.352;6.412;2022-11-20T08:05:37;1.60;99.90
25536;DHT22;13431;51.352;6.412;2022-11-20T08:08:04;1.60;99.90
25536;DHT22;13431;51.352;6.412;2022-11-20T08:10:32;1.60;99.90
25536;DHT22;13431;51.352;6.412;2022-11-20T08:12:59;1.60;99.90
25536;DHT22;13431;51.352;6.412;2022-11-20T08:15:55;1.60;99.90
25536;DHT22;13431;51.352;6.412;2022-11-20T08:18:22;1.80;99.90
25536;DHT22;13431;51.352;6.412;2022-11-20T08:21:01;1.90;99.90
25536;DHT22;13431;51.352;6.412;2022-11-20T08:23:29;2.10;99.90
25536;DHT22;13431;51.352;6.412;2022-11-20T08:25:57;2.20;99.90
25536;DHT22;13431;51.352;6.412;2022-11-20T08:28:24;2.40;99.90
25536;DHT22;13431;51.352;6.412;2022-11-20T08:31:00;2.50;99.90
25536;DHT22;13431;51.352;6.412;2022-11-20T08:33:28;2.70;99.90
25536;DHT22;13431;51.352;6.412;2022-11-20T08:36:00;2.90;99.90
25536;DHT22;13431;51.352;6.412;2022-11-20T08:38:29;3.00;99.90
25536;DHT22;13431;51.352;6.412;2022-11-20T08:40:57;2.90;99.90
25536;DHT22;13431;51.352;6.412;2022-11-20T08:43:44;3.00;99.90
25536;DHT22;13431;51.352;6.412;2022-11-20T08:46:11;3.10;99.90
25536;DHT22;13431;51.352;6.412;2022-11-20T08:48:39;3.10;99.90
25536;DHT22;13431;51.352;6.412;2022-11-20T08:51:06;3.10;99.90
25536;DHT22;13431;51.352;6.412;2022-11-20T08:53:33;3.30;99.90
25536;DHT22;13431;51.352;6.412;2022-11-20T08:56:01;3.40;99.90
25536;DHT22;13431;51.352;6.412;2022-11-20T08:58:28;3.60;99.90
25536;DHT22;13431;51.352;6.412;2022-11-20T09:00:57;3.80;99.90
25536;DHT22;13431;51.352;6.412;2022-11-20T09:03:24;4.00;99.90
25536;DHT22;13431;51.352;6.412;2022-11-20T09:06:04;4.20;99.90
25536;DHT22;13431;51.352;6.412;2022-11-20T09:08:32;4.20;99.90
25536;DHT22;13431;51.352;6.412;2022-11-20T09:10:59;4.10;99.90
25536;DHT22;13431;51.352;6.412;2022-11-20T09:13:28;4.00;99.90
25536;DHT22;13431;51.352;6.412;2022-11-20T09:15:58;4.10;99.90
25536;DHT22;13431;51.352;6.412;2022-11-20T09:18:27;4.00;99.90
25536;DHT22;13431;51.352;6.412;2022-11-20T09:20:59;4.10;99.90
25536;DHT22;13431;51.352;6.412;2022-11-20T09:23:31;4.10;99.90
25536;DHT22;13431;51.352;6.412;2022-11-20T09:26:05;4.30;99.90
25536;DHT22;13431;51.352;6.412;2022-11-20T09:28:33;4.60;99.90
25536;DHT22;13431;51.352;6.412;2022-11-20T09:31:00;4.60;99.90
25536;DHT22;13431;51.352;6.412;2022-11-20T09:33:27;4.50;99.90
25536;DHT22;13431;51.352;6.412;2022-11-20T09:35:55;4.80;99.90
25536;DHT22;13431;51.352;6.412;2022-11-20T09:38:22;4.90;99.90
25536;DHT22;13431;51.352;6.412;2022-11-20T09:40:57;5.10;99.90
25536;DHT22;13431;51.352;6.412;2022-11-20T09:46:14;5.10;99.90
25536;DHT22;13431;51.352;6.412;2022-11-20T09:49:18;5.20;99.90
25536;DHT22;13431;51.352;6.412;2022-11-20T09:52:10;5.10;99.90
25536;DHT22;13431;51.352;6.412;2022-11-20T09:54:42;5.00;99.90
25536;DHT22;13431;51.352;6.412;2022-11-20T09:57:12;5.10;99.90
25536;DHT22;13431;51.352;6.412;2022-11-20T09:59:43;5.20;99.90
25536;DHT22;13431;51.352;6.412;2022-11-20T10:02:28;5.20;99.90
25536;DHT22;13431;51.352;6.412;2022-11-20T10:05:05;5.10;99.90
25536;DHT22;13431;51.352;6.412;2022-11-20T10:07:41;5.00;99.90
25536;DHT22;13431;51.352;6.412;2022-11-20T10:10:16;5.00;99.90
25536;DHT22;13431;51.352;6.412;2022-11-20T10:13:13;5.00;99.90
25536;DHT22;13431;51.352;6.412;2022-11-20T10:16:03;4.90;99.90
25536;DHT22;13431;51.352;6.412;2022-11-20T10:21:32;4.90;99.90
25536;DHT22;13431;51.352;6.412;2022-11-20T10:24:11;4.80;99.90
25536;DHT22;13431;51.352;6.412;2022-11-20T10:30:03;4.70;99.90
25536;DHT22;13431;51.352;6.412;2022-11-20T10:32:37;4.80;99.90
25536;DHT22;13431;51.352;6.412;2022-11-20T10:35:20;4.70;99.90
25536;DHT22;13431;51.352;6.412;2022-11-20T10:38:00;4.50;99.90
25536;DHT22;13431;51.352;6.412;2022-11-20T10:43:17;4.40;99.90
25536;DHT22;13431;51.352;6.412;2022-11-20T10:45:47;4.50;99.90
25536;DHT22;13431;51.352;6.412;2022-11-20T10:48:20;4.60;99.90
25536;DHT22;13431;51.352;6.412;2022-11-20T10:56:42;5.00;99.90
25536;DHT22;13431;51.352;6.412;2022-11-20T10:59:38;5.10;99.90
25536;DHT22;13431;51.352;6.412;2022-11-20T11:02:20;5.10;99.90
25536;DHT22;13431;51.352;6.412;2022-11-20T11:04:50;5.30;99.90
25536;DHT22;13431;51.352;6.412;2022-11-20T11:09:54;5.30;99.90
25536;DHT22;13431;51.352;6.412;2022-11-20T11:12:24;5.30;99.90
25536;DHT22;13431;51.352;6.412;2022-11-20T11:14:54;5.40;99.90
25536;DHT22;13431;51.352;6.412;2022-11-20T11:17:23;5.40;99.90
25536;DHT22;13431;51.352;6.412;2022-11-20T11:22:32;5.00;99.90
25536;DHT22;13431;51.352;6.412;2022-11-20T11:25:00;4.70;99.90
25536;DHT22;13431;51.352;6.412;2022-11-20T11:27:27;4.90;99.90
25536;DHT22;13431;51.352;6.412;2022-11-20T11:30:10;4.90;99.90
25536;DHT22;13431;51.352;6.412;2022-11-20T11:32:38;4.90;99.90
25536;DHT22;13431;51.352;6.412;2022-11-20T11:35:11;5.00;99.90
25536;DHT22;13431;51.352;6.412;2022-11-20T11:37:45;5.00;99.90
25536;DHT22;13431;51.352;6.412;2022-11-20T11:40:15;5.10;99.90
25536;DHT22;13431;51.352;6.412;2022-11-20T11:42:59;5.00;99.90
25536;DHT22;13431;51.352;6.412;2022-11-20T11:45:27;5.20;99.90
25536;DHT22;13431;51.352;6.412;2022-11-20T11:47:57;5.20;99.90
25536;DHT22;13431;51.352;6.412;2022-11-20T11:50:27;5.10;99.90
25536;DHT22;13431;51.352;6.412;2022-11-20T11:53:18;5.20;99.90
25536;DHT22;13431;51.352;6.412;2022-11-20T11:55:53;5.40;99.90
25536;DHT22;13431;51.352;6.412;2022-11-20T11:58:48;5.60;99.90
25536;DHT22;13431;51.352;6.412;2022-11-20T12:01:29;5.70;99.90
25536;DHT22;13431;51.352;6.412;2022-11-20T12:07:12;5.60;99.90
25536;DHT22;13431;51.352;6.412;2022-11-20T12:10:02;5.50;99.90
25536;DHT22;13431;51.352;6.412;2022-11-20T12:12:36;5.70;99.90
25536;DHT22;13431;51.352;6.412;2022-11-20T12:15:06;5.80;99.90
25536;DHT22;13431;51.352;6.412;2022-11-20T12:17:36;5.80;99.90
25536;DHT22;13431;51.352;6.412;2022-11-20T12:20:15;5.80;99.90
25536;DHT22;13431;51.352;6.412;2022-11-20T12:22:52;5.60;99.90
25536;DHT22;13431;51.352;6.412;2022-11-20T12:25:30;5.60;99.90
25536;DHT22;13431;51.352;6.412;2022-11-20T12:28:23;5.50;99.90
25536;DHT22;13431;51.352;6.412;2022-11-20T12:39:09;5.50;99.90
25536;DHT22;13431;51.352;6.412;2022-11-20T12:41:50;5.50;99.90
25536;DHT22;13431;51.352;6.412;2022-11-20T12:45:14;5.50;99.90
25536;DHT22;13431;51.352;6.412;2022-11-20T12:59:23;5.40;99.90
25536;DHT22;13431;51.352;6.412;2022-11-20T13:05:09;5.50;99.90
25536;DHT22;13431;51.352;6.412;2022-11-20T13:07:43;5.50;99.90
25536;DHT22;13431;51.352;6.412;2022-11-20T13:10:33;5.40;99.90
25536;DHT22;13431;51.352;6.412;2022-11-20T13:16:04;5.50;99.90
25536;DHT22;13431;51.352;6.412;2022-11-20T13:18:39;5.50;99.90
25536;DHT22;13431;51.352;6.412;2022-11-20T13:21:17;5.60;99.90
25536;DHT22;13431;51.352;6.412;2022-11-20T13:23:45;5.60;99.90
25536;DHT22;13431;51.352;6.412;2022-11-20T13:26:20;5.60;99.90
25536;DHT22;13431;51.352;6.412;2022-11-20T13:29:03;5.50;99.90
25536;DHT22;13431;51.352;6.412;2022-11-20T13:31:34;5.50;99.90
25536;DHT22;13431;51.352;6.412;2022-11-20T13:34:05;5.40;99.90
25536;DHT22;13431;51.352;6.412;2022-11-20T13:36:33;5.50;99.90
25536;DHT22;13431;51.352;6.412;2022-11-20T13:39:02;5.50;99.90
25536;DHT22;13431;51.352;6.412;2022-11-20T13:41:35;5.50;99.90
25536;DHT22;13431;51.352;6.412;2022-11-20T13:46:49;5.60;99.90
25536;DHT22;13431;51.352;6.412;2022-11-20T13:49:39;5.60;99.90
25536;DHT22;13431;51.352;6.412;2022-11-20T14:01:11;5.80;99.90
25536;DHT22;13431;51.352;6.412;2022-11-20T14:03:41;5.80;99.90
25536;DHT22;13431;51.352;6.412;2022-11-20T14:06:32;5.60;99.90
25536;DHT22;13431;51.352;6.412;2022-11-20T14:09:00;5.60;99.90
25536;DHT22;13431;51.352;6.412;2022-11-20T14:11:29;5.60;99.90
25536;DHT22;13431;51.352;6.412;2022-11-20T14:14:10;5.60;99.90
25536;DHT22;13431;51.352;6.412;2022-11-20T14:16:40;5.70;99.90
25536;DHT22;13431;51.352;6.412;2022-11-20T14:22:10;5.60;99.90
25536;DHT22;13431;51.352;6.412;2022-11-20T14:24:35;5.60;99.90
25536;DHT22;13431;51.352;6.412;2022-11-20T14:27:02;5.60;99.90
25536;DHT22;13431;51.352;6.412;2022-11-20T14:29:35;5.60;99.90
25536;DHT22;13431;51.352;6.412;2022-11-20T14:32:03;5.60;99.90
25536;DHT22;13431;51.352;6.412;2022-11-20T14:34:35;5.60;99.90
25536;DHT22;13431;51.352;6.412;2022-11-20T14:37:06;5.60;99.90
25536;DHT22;13431;51.352;6.412;2022-11-20T14:39:52;5.50;99.90
25536;DHT22;13431;51.352;6.412;2022-11-20T14:42:26;5.50;99.90
25536;DHT22;13431;51.352;6.412;2022-11-20T14:44:55;5.50;99.90
25536;DHT22;13431;51.352;6.412;2022-11-20T14:47:25;5.50;99.90
25536;DHT22;13431;51.352;6.412;2022-11-20T14:49:54;5.50;99.90
25536;DHT22;13431;51.352;6.412;2022-11-20T14:52:24;5.40;99.90
25536;DHT22;13431;51.352;6.412;2022-11-20T14:54:54;5.40;99.90
25536;DHT22;13431;51.352;6.412;2022-11-20T14:57:35;5.40;99.90
25536;DHT22;13431;51.352;6.412;2022-11-20T15:02:44;5.30;99.90
25536;DHT22;13431;51.352;6.412;2022-11-20T15:05:12;5.30;99.90
25536;DHT22;13431;51.352;6.412;2022-11-20T15:07:42;5.30;99.90
25536;DHT22;13431;51.352;6.412;2022-11-20T15:10:23;5.40;99.90
25536;DHT22;13431;51.352;6.412;2022-11-20T15:12:57;5.40;99.90
25536;DHT22;13431;51.352;6.412;2022-11-20T15:15:39;5.40;99.90
25536;DHT22;13431;51.352;6.412;2022-11-20T15:20:55;5.30;99.90
25536;DHT22;13431;51.352;6.412;2022-11-20T15:23:22;5.30;99.90
25536;DHT22;13431;51.352;6.412;2022-11-20T15:25:50;5.30;99.90
25536;DHT22;13431;51.352;6.412;2022-11-20T15:30:52;5.20;99.90
25536;DHT22;13431;51.352;6.412;2022-11-20T15:33:19;5.20;99.90
25536;DHT22;13431;51.352;6.412;2022-11-20T15:35:46;5.20;99.90
25536;DHT22;13431;51.352;6.412;2022-11-20T15:38:14;5.20;99.90
25536;DHT22;13431;51.352;6.412;2022-11-20T15:40:41;5.20;99.90
25536;DHT22;13431;51.352;6.412;2022-11-20T15:43:09;5.10;99.90
25536;DHT22;13431;51.352;6.412;2022-11-20T15:45:45;5.10;99.90
25536;DHT22;13431;51.352;6.412;2022-11-20T15:48:26;5.10;99.90
25536;DHT22;13431;51.352;6.412;2022-11-20T15:53:30;5.10;99.90
25536;DHT22;13431;51.352;6.412;2022-11-20T15:55:58;5.10;99.90
25536;DHT22;13431;51.352;6.412;2022-11-20T15:58:25;5.10;99.90
25536;DHT22;13431;51.352;6.412;2022-11-20T16:00:53;5.00;99.90
25536;DHT22;13431;51.352;6.412;2022-11-20T16:03:21;5.00;99.90
25536;DHT22;13431;51.352;6.412;2022-11-20T16:05:49;5.00;99.90
25536;DHT22;13431;51.352;6.412;2022-11-20T16:08:16;5.00;99.90
25536;DHT22;13431;51.352;6.412;2022-11-20T16:10:44;5.10;99.90
25536;DHT22;13431;51.352;6.412;2022-11-20T16:13:16;5.00;99.90
25536;DHT22;13431;51.352;6.412;2022-11-20T16:18:46;5.10;99.90
25536;DHT22;13431;51.352;6.412;2022-11-20T16:21:14;5.10;99.90
25536;DHT22;13431;51.352;6.412;2022-11-20T16:23:42;5.20;99.90
25536;DHT22;13431;51.352;6.412;2022-11-20T16:26:14;5.10;99.90
25536;DHT22;13431;51.352;6.412;2022-11-20T16:28:43;5.10;99.90
25536;DHT22;13431;51.352;6.412;2022-11-20T16:31:18;5.10;99.90
25536;DHT22;13431;51.352;6.412;2022-11-20T16:33:53;5.10;99.90
25536;DHT22;13431;51.352;6.412;2022-11-20T16:36:22;5.10;99.90
25536;DHT22;13431;51.352;6.412;2022-11-20T16:38:57;5.10;99.90
25536;DHT22;13431;51.352;6.412;2022-11-20T16:41:26;5.20;99.90
25536;DHT22;13431;51.352;6.412;2022-11-20T16:43:57;5.20;99.90
25536;DHT22;13431;51.352;6.412;2022-11-20T16:46:30;5.20;99.90
25536;DHT22;13431;51.352;6.412;2022-11-20T16:48:59;5.20;99.90
25536;DHT22;13431;51.352;6.412;2022-11-20T16:51:28;5.20;99.90
25536;DHT22;13431;51.352;6.412;2022-11-20T16:53:56;5.30;99.90
25536;DHT22;13431;51.352;6.412;2022-11-20T16:56:25;5.30;99.90
25536;DHT22;13431;51.352;6.412;2022-11-20T16:58:55;5.30;99.90
25536;DHT22;13431;51.352;6.412;2022-11-20T17:01:24;5.30;99.90
25536;DHT22;13431;51.352;6.412;2022-11-20T17:03:58;5.30;99.90
25536;DHT22;13431;51.352;6.412;2022-11-20T17:06:31;5.30;99.90
25536;DHT22;13431;51.352;6.412;2022-11-20T17:08:59;5.30;99.90
25536;DHT22;13431;51.352;6.412;2022-11-20T17:11:27;5.30;99.90
25536;DHT22;13431;51.352;6.412;2022-11-20T17:13:55;5.30;99.90
25536;DHT22;13431;51.352;6.412;2022-11-20T17:16:24;5.40;99.90
25536;DHT22;13431;51.352;6.412;2022-11-20T17:18:53;5.40;99.90
25536;DHT22;13431;51.352;6.412;2022-11-20T17:21:28;5.40;99.90
25536;DHT22;13431;51.352;6.412;2022-11-20T17:23:59;5.40;99.90
25536;DHT22;13431;51.352;6.412;2022-11-20T17:26:28;5.40;99.90
25536;DHT22;13431;51.352;6.412;2022-11-20T17:29:01;5.50;99.90
25536;DHT22;13431;51.352;6.412;2022-11-20T17:31:30;5.50;99.90
25536;DHT22;13431;51.352;6.412;2022-11-20T17:33:58;5.50;99.90
25536;DHT22;13431;51.352;6.412;2022-11-20T17:36:27;5.60;99.90
25536;DHT22;13431;51.352;6.412;2022-11-20T17:38:54;5.60;99.90
25536;DHT22;13431;51.352;6.412;2022-11-20T17:41:23;5.60;99.90
25536;DHT22;13431;51.352;6.412;2022-11-20T17:43:56;5.60;99.90
25536;DHT22;13431;51.352;6.412;2022-11-20T17:46:28;5.70;99.90
25536;DHT22;13431;51.352;6.412;2022-11-20T17:48:56;5.60;99.90